Time;durP1;ratioP1;P1;durP2;ratioP2;P2;SDS_P1;SDS_P2;PMS_P1;PMS_P2;Temp;Humidity;BMP_temperature;BMP_pressure;BME280_temperature;BME280_humidity;BME280_pressure;Samples;Min_cycle;Max_cycle;Signal;HPM_P1;HPM_P2
2022/11/14 04:09:28;;;;;;;3.60;0.20;;;12.10;66.30;;;;;;5057406;27;20123;-78
2022/11/14 04:12:13;;;;;;;1.05;0.20;;;12.20;69.30;;;;;;5071303;28;20039;-84
2022/11/14 04:14:57;;;;;;;0.98;0.30;;;12.30;68.50;;;;;;5055391;28;20033;-84
2022/11/14 04:17:42;;;;;;;1.73;0.25;;;12.40;66.50;;;;;;5055136;28;20036;-84
2022/11/14 04:20:27;;;;;;;0.60;0.20;;;12.50;64.50;;;;;;5058357;28;20044;-86
2022/11/14 04:23:11;;;;;;;0.30;0.30;;;12.60;63.80;;;;;;5048929;28;20709;-82
2022/11/14 04:25:57;;;;;;;3.08;0.50;;;12.70;63.30;;;;;;5046521;28;20044;-86
2022/11/14 04:28:41;;;;;;;0.82;0.30;;;12.80;63.10;;;;;;5068847;28;20118;-90
2022/11/14 04:31:25;;;;;;;0.55;0.35;;;12.80;62.90;;;;;;5053955;28;20045;-89
2022/11/14 04:34:10;;;;;;;1.00;0.43;;;12.90;63.40;;;;;;5047243;28;20163;-85
2022/11/14 04:36:55;;;;;;;0.65;0.25;;;12.90;62.70;;;;;;5050567;28;20050;-79
2022/11/14 04:39:39;;;;;;;2.35;0.68;;;13.00;62.20;;;;;;5052314;28;20041;-78
2022/11/14 04:42:24;;;;;;;0.70;0.30;;;13.00;62.10;;;;;;5072330;28;20457;-81
2022/11/14 04:45:09;;;;;;;1.63;0.50;;;13.10;61.70;;;;;;5073076;28;20117;-80
2022/11/14 04:47:53;;;;;;;2.35;0.40;;;13.10;61.90;;;;;;5070522;28;20043;-86
2022/11/14 04:50:38;;;;;;;3.75;0.70;;;13.10;63.30;;;;;;5071722;28;20063;-82
2022/11/14 04:53:23;;;;;;;2.20;0.57;;;13.10;64.20;;;;;;5073759;28;20029;-83
2022/11/14 04:56:07;;;;;;;2.63;0.85;;;13.20;64.20;;;;;;5067662;28;20124;-83
2022/11/14 04:58:52;;;;;;;1.95;1.00;;;13.20;64.60;;;;;;5074430;28;20025;-83
2022/11/14 05:01:36;;;;;;;2.20;0.85;;;13.20;64.70;;;;;;5064217;28;20028;-84
2022/11/14 05:04:21;;;;;;;2.47;0.85;;;13.20;64.20;;;;;;5070796;28;20036;-84
2022/11/14 05:07:06;;;;;;;5.03;0.98;;;13.20;63.80;;;;;;5074156;28;20115;-92
2022/11/14 05:09:50;;;;;;;4.75;1.33;;;13.20;63.60;;;;;;5073149;28;20045;-91
2022/11/14 05:12:35;;;;;;;3.00;1.00;;;13.20;63.80;;;;;;5075006;28;20123;-92
2022/11/14 05:15:20;;;;;;;2.65;1.17;;;13.20;64.60;;;;;;5073418;28;20403;-88
2022/11/14 05:18:04;;;;;;;4.53;1.40;;;13.20;64.30;;;;;;5064484;28;20131;-91
2022/11/14 05:20:49;;;;;;;4.40;1.33;;;13.20;63.90;;;;;;5079037;28;20294;-90
2022/11/14 05:23:34;;;;;;;4.28;1.52;;;13.20;63.80;;;;;;5072686;28;20177;-87
2022/11/14 05:26:19;;;;;;;6.85;1.10;;;13.20;63.80;;;;;;5054712;28;21011;-86
2022/11/14 05:29:04;;;;;;;2.85;1.25;;;13.20;63.30;;;;;;5070266;28;20043;-87
2022/11/14 05:31:48;;;;;;;4.63;1.17;;;13.20;63.50;;;;;;5071841;28;20033;-90
2022/11/14 05:34:33;;;;;;;4.13;1.13;;;13.20;63.40;;;;;;5062112;28;20120;-90
2022/11/14 05:37:18;;;;;;;7.03;1.08;;;13.20;62.70;;;;;;5047012;28;20024;-90
2022/11/14 05:40:04;;;;;;;2.83;1.00;;;13.20;62.50;;;;;;5059769;28;20025;-91
2022/11/14 05:42:48;;;;;;;2.03;0.80;;;13.20;62.50;;;;;;5074170;28;20102;-90
2022/11/14 05:45:33;;;;;;;2.20;0.93;;;13.20;62.60;;;;;;5058172;28;20124;-88
2022/11/14 05:48:18;;;;;;;3.22;1.40;;;13.20;61.80;;;;;;5057569;28;20041;-90
2022/11/14 05:51:05;;;;;;;3.72;1.25;;;13.30;61.40;;;;;;5059251;28;20029;-90
2022/11/14 05:53:49;;;;;;;3.55;1.38;;;13.40;61.60;;;;;;5058750;28;20031;-90
2022/11/14 05:56:34;;;;;;;3.90;1.13;;;13.50;61.00;;;;;;5066567;28;20029;-86
2022/11/14 05:59:19;;;;;;;3.25;1.50;;;13.60;60.80;;;;;;5062381;28;20063;-86
2022/11/14 06:02:03;;;;;;;3.42;1.15;;;13.70;60.50;;;;;;5058280;28;20086;-83
2022/11/14 06:04:47;;;;;;;3.83;1.08;;;13.80;60.30;;;;;;5046728;28;20036;-84
2022/11/14 06:07:32;;;;;;;2.17;1.20;;;13.80;59.60;;;;;;5057093;28;20194;-78
2022/11/14 06:10:17;;;;;;;4.35;1.80;;;13.80;59.40;;;;;;5056522;28;20041;-76
2022/11/14 06:13:01;;;;;;;5.18;2.00;;;13.80;59.40;;;;;;5055479;28;20127;-79
2022/11/14 06:15:46;;;;;;;2.47;1.30;;;13.80;59.30;;;;;;5055184;28;20071;-77
2022/11/14 06:18:31;;;;;;;3.38;1.05;;;13.90;59.30;;;;;;5056342;28;20045;-77
2022/11/14 06:21:18;;;;;;;2.08;1.15;;;14.00;59.30;;;;;;5056560;28;20032;-77
2022/11/14 06:24:03;;;;;;;2.78;1.20;;;14.10;59.00;;;;;;5054724;28;20062;-77
2022/11/14 06:26:47;;;;;;;4.45;1.08;;;14.20;58.20;;;;;;5054796;28;20518;-77
2022/11/14 06:29:32;;;;;;;2.08;1.05;;;14.20;57.70;;;;;;5055218;28;21540;-79
2022/11/14 06:32:17;;;;;;;1.65;1.00;;;14.30;57.40;;;;;;5054481;28;20065;-77
2022/11/14 06:35:01;;;;;;;2.30;1.15;;;14.40;57.50;;;;;;5055539;28;20536;-77
2022/11/14 06:37:46;;;;;;;3.25;1.00;;;14.50;57.30;;;;;;5054816;28;20033;-77
2022/11/14 06:40:31;;;;;;;2.92;1.30;;;14.60;57.60;;;;;;5056011;28;20056;-78
2022/11/14 06:43:15;;;;;;;3.85;0.90;;;14.70;57.50;;;;;;5055669;28;20123;-77
2022/11/14 06:46:01;;;;;;;3.00;1.55;;;14.80;57.40;;;;;;5055123;28;20487;-77
2022/11/14 06:48:47;;;;;;;1.70;0.98;;;14.80;57.20;;;;;;5055394;28;20051;-77
2022/11/14 06:51:31;;;;;;;2.92;1.08;;;14.90;57.20;;;;;;5056234;28;20041;-77
2022/11/14 06:54:16;;;;;;;2.92;0.98;;;15.00;56.50;;;;;;5054963;28;20460;-76
2022/11/14 06:57:00;;;;;;;1.40;0.80;;;15.00;56.20;;;;;;5056265;28;20503;-76
2022/11/14 06:59:45;;;;;;;1.90;0.60;;;15.10;56.00;;;;;;5055158;28;20462;-77
2022/11/14 07:02:30;;;;;;;1.73;0.70;;;15.10;55.90;;;;;;5055846;28;20029;-77
2022/11/14 07:05:15;;;;;;;4.15;1.10;;;15.20;55.60;;;;;;5055085;28;20025;-77
2022/11/14 07:07:59;;;;;;;2.22;0.77;;;15.30;55.30;;;;;;5054443;28;20132;-77
2022/11/14 07:10:44;;;;;;;2.05;0.68;;;15.30;55.20;;;;;;5055810;28;20029;-77
2022/11/14 07:13:30;;;;;;;2.25;0.90;;;15.40;54.80;;;;;;5054594;28;20553;-77
2022/11/14 07:16:14;;;;;;;3.70;1.00;;;15.50;54.30;;;;;;5054531;28;20043;-78
2022/11/14 07:19:00;;;;;;;1.63;0.75;;;15.60;54.10;;;;;;5055604;28;20510;-77
2022/11/14 07:21:44;;;;;;;2.13;0.80;;;15.60;53.90;;;;;;5055886;28;20044;-77
2022/11/14 07:24:28;;;;;;;3.58;0.88;;;15.70;54.50;;;;;;5052762;28;20040;-78
2022/11/14 07:27:13;;;;;;;2.10;0.63;;;15.70;55.40;;;;;;5054676;28;20404;-78
2022/11/14 07:29:57;;;;;;;1.67;0.55;;;15.80;56.60;;;;;;5027510;28;20033;-78
2022/11/14 07:32:42;;;;;;;3.22;0.65;;;15.90;56.90;;;;;;5053837;28;20037;-77
2022/11/14 07:35:26;;;;;;;1.92;0.70;;;15.90;57.20;;;;;;5055480;28;20037;-77
2022/11/14 07:38:11;;;;;;;3.22;0.82;;;15.90;57.10;;;;;;5055146;28;20028;-77
2022/11/14 07:41:00;;;;;;;2.00;0.80;;;15.90;56.90;;;;;;5054547;28;20037;-77
2022/11/14 07:43:45;;;;;;;3.08;0.80;;;16.00;57.20;;;;;;5053083;28;20044;-77
2022/11/14 07:46:29;;;;;;;1.88;0.98;;;16.00;57.60;;;;;;5050090;28;20041;-79
2022/11/14 07:49:14;;;;;;;4.85;1.00;;;16.00;57.60;;;;;;5035421;28;20410;-77
2022/11/14 07:51:59;;;;;;;4.80;0.70;;;16.00;57.40;;;;;;5035460;28;20036;-77
2022/11/14 07:54:44;;;;;;;1.97;0.50;;;16.00;56.80;;;;;;5035905;28;20041;-77
2022/11/14 07:57:28;;;;;;;1.38;0.68;;;16.10;56.80;;;;;;5037413;28;20033;-77
2022/11/14 08:00:14;;;;;;;3.03;0.55;;;16.10;57.20;;;;;;5033522;28;20037;-77
2022/11/14 08:02:59;;;;;;;2.47;0.85;;;16.10;56.50;;;;;;5035334;28;20037;-78
2022/11/14 08:05:43;;;;;;;3.40;0.77;;;16.10;56.60;;;;;;5034801;28;20034;-78
2022/11/14 08:08:28;;;;;;;3.78;0.85;;;16.00;55.60;;;;;;5032893;28;20044;-78
2022/11/14 08:11:12;;;;;;;3.78;0.80;;;16.00;55.70;;;;;;5033791;28;20242;-78
2022/11/14 08:13:57;;;;;;;1.45;0.35;;;16.00;55.90;;;;;;5035492;28;20665;-79
2022/11/14 08:16:41;;;;;;;2.50;0.47;;;16.00;56.40;;;;;;5033252;28;20416;-78
2022/11/14 08:19:26;;;;;;;1.05;0.60;;;16.00;56.00;;;;;;5034599;28;20033;-79
2022/11/14 08:22:10;;;;;;;2.58;0.75;;;16.00;55.50;;;;;;5029181;28;20033;-79
2022/11/14 08:24:55;;;;;;;1.73;0.63;;;16.00;55.20;;;;;;5033279;28;20030;-79
2022/11/14 08:27:40;;;;;;;1.35;0.50;;;16.00;55.40;;;;;;5039189;28;20041;-79
2022/11/14 08:30:25;;;;;;;1.65;0.50;;;16.00;55.30;;;;;;5033574;28;20033;-78
2022/11/14 08:33:10;;;;;;;1.67;0.60;;;15.90;55.20;;;;;;5033043;28;20025;-78
2022/11/14 08:35:54;;;;;;;1.63;0.65;;;15.90;54.90;;;;;;5032488;28;20030;-78
2022/11/14 08:38:39;;;;;;;1.70;0.52;;;15.90;55.00;;;;;;5046812;28;20143;-79
2022/11/14 08:41:24;;;;;;;2.63;1.13;;;15.90;54.60;;;;;;5043053;28;20034;-79
2022/11/14 08:44:09;;;;;;;3.03;1.55;;;15.90;55.00;;;;;;5024275;28;20033;-78
2022/11/14 08:46:53;;;;;;;3.60;1.38;;;15.90;55.70;;;;;;5033081;28;20037;-78
2022/11/14 08:49:38;;;;;;;4.07;1.23;;;15.90;55.00;;;;;;5033888;28;20047;-78
2022/11/14 08:52:23;;;;;;;1.80;0.63;;;15.90;54.20;;;;;;5019170;28;20054;-79
2022/11/14 08:55:08;;;;;;;1.60;0.63;;;15.80;54.20;;;;;;5035783;28;20072;-79
2022/11/14 08:57:53;;;;;;;4.35;0.82;;;15.80;54.20;;;;;;5038577;28;20116;-79
2022/11/14 09:00:38;;;;;;;2.78;0.65;;;15.80;53.90;;;;;;5037639;28;20029;-79
2022/11/14 09:03:22;;;;;;;2.67;0.70;;;15.80;53.70;;;;;;5037048;28;20068;-79
2022/11/14 09:06:07;;;;;;;5.32;0.98;;;15.80;53.90;;;;;;5054533;28;20559;-79
2022/11/14 09:08:52;;;;;;;1.58;0.80;;;15.70;53.90;;;;;;5043254;28;20566;-78
2022/11/14 09:11:36;;;;;;;2.80;0.70;;;15.70;53.60;;;;;;5035872;28;20061;-76
2022/11/14 09:14:21;;;;;;;3.47;0.93;;;15.70;53.90;;;;;;5035856;28;20033;-76
2022/11/14 09:17:05;;;;;;;1.88;0.60;;;15.70;55.30;;;;;;5040300;28;20042;-76
2022/11/14 09:19:49;;;;;;;5.53;0.93;;;15.70;54.40;;;;;;5035616;28;20415;-76
2022/11/14 09:22:34;;;;;;;2.10;0.60;;;15.70;54.40;;;;;;5035655;28;20037;-75
2022/11/14 09:25:20;;;;;;;3.22;0.60;;;15.70;55.00;;;;;;5036338;28;20032;-76
2022/11/14 09:28:06;;;;;;;3.38;0.93;;;15.70;54.60;;;;;;5049943;28;20037;-75
2022/11/14 09:30:50;;;;;;;1.45;0.52;;;15.70;53.30;;;;;;5037094;28;20033;-76
2022/11/14 09:33:35;;;;;;;4.78;0.98;;;15.80;53.40;;;;;;5036989;28;20132;-76
2022/11/14 09:36:20;;;;;;;2.03;0.88;;;15.80;53.10;;;;;;5054057;28;20041;-76
2022/11/14 09:39:04;;;;;;;3.80;0.70;;;15.70;53.90;;;;;;5054531;28;20033;-76
2022/11/14 09:42:14;;;;;;;1.83;0.60;;;15.80;52.70;;;;;;5055730;28;20048;-79
2022/11/14 09:45:01;;;;;;;3.58;0.90;;;15.80;51.80;;;;;;5056765;28;20123;-79
2022/11/14 09:47:49;;;;;;;3.50;0.77;;;15.60;47.90;;;;;;5054288;28;20040;-80
2022/11/14 09:50:44;;;;;;;3.65;0.90;;;15.40;47.10;;;;;;5056347;28;20028;-79
2022/11/14 09:53:56;;;;;;;1.50;0.70;;;15.10;47.20;;;;;;5056619;28;20415;-78
2022/11/14 09:56:40;;;;;;;3.42;0.90;;;15.00;47.30;;;;;;5055873;28;20040;-78
2022/11/14 09:59:26;;;;;;;4.40;0.75;;;14.90;48.00;;;;;;5054233;28;20037;-79
2022/11/14 10:02:25;;;;;;;2.85;0.60;;;14.70;47.90;;;;;;5056873;28;20090;-78
2022/11/14 10:05:38;;;;;;;1.80;0.68;;;14.60;48.10;;;;;;5057530;28;20083;-78
2022/11/14 10:08:48;;;;;;;2.92;1.02;;;14.50;47.00;;;;;;5055926;28;20136;-77
2022/11/14 10:12:02;;;;;;;4.57;1.00;;;14.40;47.90;;;;;;5073170;28;20664;-80
2022/11/14 10:15:22;;;;;;;2.08;0.75;;;14.20;48.60;;;;;;5056009;28;20040;-79
2022/11/14 10:18:41;;;;;;;6.78;1.90;;;14.10;48.90;;;;;;5054565;28;20045;-80
2022/11/14 10:21:44;;;;;;;3.25;1.25;;;14.00;48.80;;;;;;5053921;28;20044;-80
2022/11/14 10:24:49;;;;;;;2.47;1.10;;;13.90;49.00;;;;;;5054774;28;20037;-80
2022/11/14 10:27:58;;;;;;;3.55;1.20;;;13.80;49.00;;;;;;5057963;28;20037;-80
2022/11/14 10:31:23;;;;;;;3.40;1.40;;;13.70;49.00;;;;;;5057004;28;20036;-80
2022/11/14 10:34:13;;;;;;;6.13;1.27;;;13.60;49.50;;;;;;5012985;28;20041;-80
2022/11/14 10:37:16;;;;;;;2.95;1.00;;;13.50;49.20;;;;;;5014038;28;20025;-80
2022/11/14 10:40:19;;;;;;;4.53;1.30;;;13.40;48.90;;;;;;5014252;28;20042;-80
2022/11/14 10:43:18;;;;;;;5.18;1.13;;;13.40;48.30;;;;;;5000752;28;20462;-80
2022/11/14 10:46:19;;;;;;;5.22;1.20;;;13.30;48.30;;;;;;5013564;28;20519;-80
2022/11/14 10:49:24;;;;;;;1.60;0.63;;;13.20;47.90;;;;;;5014614;28;20531;-79
2022/11/14 10:52:13;;;;;;;2.33;0.93;;;13.10;49.00;;;;;;5013466;28;20442;-79
2022/11/14 10:55:02;;;;;;;2.55;0.93;;;13.10;48.60;;;;;;4997749;28;20033;-78
2022/11/14 10:57:47;;;;;;;2.33;1.23;;;13.00;48.30;;;;;;5001114;28;20065;-79
2022/11/14 11:00:32;;;;;;;1.58;0.95;;;12.90;48.50;;;;;;5014129;28;20037;-79
2022/11/14 11:03:16;;;;;;;3.47;1.10;;;12.80;48.10;;;;;;5012682;28;20041;-80
2022/11/14 11:06:01;;;;;;;3.45;1.17;;;12.80;49.60;;;;;;5014577;28;20034;-81
2022/11/14 11:11:58;;;;;;;4.78;1.35;;;12.80;50.40;;;;;;5048377;28;20028;-79
2022/11/14 11:14:44;;;;;;;2.67;1.27;;;12.80;50.10;;;;;;5055236;28;20453;-80
2022/11/14 11:17:29;;;;;;;1.67;1.10;;;12.80;49.70;;;;;;5054437;28;20040;-80
2022/11/14 11:20:28;;;;;;;16.85;7.93;;;12.80;49.60;;;;;;5054050;28;20115;-79
2022/11/14 11:23:24;;;;;;;10.93;5.25;;;12.70;49.70;;;;;;5056324;28;20033;-80
2022/11/14 11:26:21;;;;;;;5.75;2.25;;;12.70;49.80;;;;;;5054861;28;20082;-78
2022/11/14 11:29:11;;;;;;;7.63;2.50;;;12.70;50.30;;;;;;5056860;28;20143;-79
2022/11/14 11:31:57;;;;;;;4.50;2.08;;;12.80;52.30;;;;;;5043824;28;20267;-79
2022/11/14 11:34:42;;;;;;;6.57;2.08;;;12.90;54.10;;;;;;5055452;28;20033;-79
2022/11/14 11:37:45;;;;;;;5.00;2.00;;;13.00;54.60;;;;;;5053658;28;20051;-79
2022/11/14 11:40:30;;;;;;;3.55;1.38;;;13.10;55.20;;;;;;5054514;28;20048;-79
2022/11/14 11:43:23;;;;;;;3.22;1.40;;;13.20;56.00;;;;;;5053733;28;20503;-79
2022/11/14 11:46:18;;;;;;;2.30;1.50;;;13.30;56.70;;;;;;5055125;28;20521;-78
2022/11/14 11:49:30;;;;;;;2.72;1.10;;;13.40;57.40;;;;;;5055364;28;20035;-79
2022/11/14 11:52:40;;;;;;;1.75;1.20;;;13.50;57.80;;;;;;5050731;28;20052;-79
2022/11/14 11:55:29;;;;;;;3.28;1.20;;;13.60;58.20;;;;;;5068722;28;20411;-79
2022/11/14 11:58:23;;;;;;;3.42;1.63;;;13.60;58.40;;;;;;5052939;28;20041;-79
2022/11/14 12:01:11;;;;;;;2.10;1.38;;;13.70;58.40;;;;;;5053131;28;20035;-79
2022/11/14 12:03:57;;;;;;;3.88;1.50;;;13.80;57.70;;;;;;5054516;28;20578;-79
2022/11/14 12:06:54;;;;;;;2.30;1.00;;;13.80;57.50;;;;;;5054525;28;20048;-79
2022/11/14 12:09:40;;;;;;;3.00;1.27;;;13.90;57.60;;;;;;5055716;28;20291;-79
2022/11/14 12:12:34;;;;;;;1.10;0.90;;;13.90;57.10;;;;;;5053852;28;20056;-79
2022/11/14 12:15:43;;;;;;;2.67;1.25;;;14.00;57.10;;;;;;5054503;28;20510;-79
2022/11/14 12:18:42;;;;;;;3.25;1.15;;;14.00;56.70;;;;;;5067237;28;20037;-80
2022/11/14 12:21:54;;;;;;;1.95;1.15;;;14.00;57.00;;;;;;5053613;28;20064;-79
2022/11/14 12:25:15;;;;;;;2.75;1.25;;;14.10;57.60;;;;;;5054755;28;20532;-79
2022/11/14 12:28:23;;;;;;;1.98;0.90;;;14.10;57.80;;;;;;5056119;28;20049;-79
2022/11/14 12:31:12;;;;;;;1.70;0.80;;;14.20;57.50;;;;;;5058815;28;20074;-81
2022/11/14 12:34:24;;;;;;;1.27;0.80;;;14.20;57.30;;;;;;5057759;28;20024;-79
2022/11/14 12:37:30;;;;;;;2.15;0.90;;;14.20;57.10;;;;;;5037564;28;20076;-79
2022/11/14 12:40:36;;;;;;;0.85;0.52;;;14.30;57.60;;;;;;5038455;28;20044;-79
2022/11/14 12:43:32;;;;;;;4.22;0.95;;;14.30;57.60;;;;;;5058411;28;20035;-77
2022/11/14 12:46:16;;;;;;;3.08;0.90;;;14.30;57.30;;;;;;5057481;28;20079;-78
2022/11/14 12:49:36;;;;;;;2.55;1.00;;;14.30;56.30;;;;;;5058690;28;20507;-78
2022/11/14 12:52:53;;;;;;;6.32;1.00;;;14.30;55.80;;;;;;5057615;28;20048;-78
2022/11/14 12:55:40;;;;;;;2.78;0.93;;;14.30;55.50;;;;;;5056302;28;20028;-78
2022/11/14 12:59:13;;;;;;;2.80;0.88;;;14.30;55.50;;;;;;5057878;28;20040;-79
2022/11/14 13:02:15;;;;;;;2.85;1.13;;;14.30;55.70;;;;;;5000150;28;20053;-79
2022/11/14 13:05:08;;;;;;;4.00;1.20;;;14.30;55.80;;;;;;5005920;28;20037;-80
2022/11/14 13:08:18;;;;;;;1.77;0.68;;;14.30;55.80;;;;;;5016138;28;20567;-79
2022/11/14 13:25:02;;;;;;;3.78;0.90;;;14.20;56.50;;;;;;4994759;28;20039;-75
2022/11/14 13:27:48;;;;;;;2.15;0.93;;;14.20;56.60;;;;;;4995624;28;20046;-75
2022/11/14 13:31:16;;;;;;;3.33;0.93;;;14.20;56.30;;;;;;4986689;28;20468;-75
2022/11/14 13:34:30;;;;;;;2.10;0.90;;;14.20;56.20;;;;;;4974069;28;20058;-74
2022/11/14 13:37:30;;;;;;;4.57;0.85;;;14.20;56.80;;;;;;4987256;28;20030;-75
2022/11/14 13:40:24;;;;;;;4.47;0.90;;;14.20;56.80;;;;;;5049820;28;20401;-75
2022/11/14 13:43:28;;;;;;;2.03;0.77;;;14.10;56.90;;;;;;5038929;28;20399;-74
2022/11/14 13:46:36;;;;;;;2.47;0.80;;;14.10;57.00;;;;;;5034300;28;20025;-75
2022/11/14 13:49:39;;;;;;;3.63;0.80;;;14.10;57.20;;;;;;5020055;28;20389;-75
2022/11/14 13:52:28;;;;;;;1.70;0.57;;;14.10;56.60;;;;;;5017968;28;20041;-74
2022/11/14 13:55:37;;;;;;;1.30;0.60;;;14.00;56.20;;;;;;5034193;28;20254;-75
2022/11/14 13:58:40;;;;;;;0.98;0.43;;;14.10;56.50;;;;;;5049476;28;20048;-75
2022/11/14 14:01:35;;;;;;;2.20;0.75;;;14.00;56.70;;;;;;5054922;28;20040;-76
2022/11/14 14:04:39;;;;;;;4.20;0.70;;;14.00;56.80;;;;;;5056174;28;20040;-75
2022/11/14 14:07:50;;;;;;;1.73;0.63;;;14.00;57.00;;;;;;5057271;28;20057;-77
2022/11/14 14:11:14;;;;;;;5.53;1.23;;;14.00;57.30;;;;;;5057077;28;20146;-79
2022/11/14 14:14:11;;;;;;;2.65;0.88;;;14.00;57.70;;;;;;5055373;28;20097;-78
2022/11/14 14:17:14;;;;;;;4.45;0.70;;;14.00;57.80;;;;;;5055606;28;20036;-79
2022/11/14 14:20:15;;;;;;;2.53;0.70;;;14.00;57.60;;;;;;5055764;28;20032;-78
2022/11/14 14:23:11;;;;;;;2.25;0.63;;;14.00;57.30;;;;;;5055695;28;20120;-79
2022/11/14 14:25:56;;;;;;;3.13;0.70;;;13.90;57.50;;;;;;5060015;28;20068;-79
2022/11/14 14:29:08;;;;;;;4.00;0.95;;;13.90;57.60;;;;;;5056430;28;20554;-79
2022/11/14 14:32:04;;;;;;;3.58;1.10;;;13.90;57.20;;;;;;5055806;28;20410;-79
2022/11/14 14:34:48;;;;;;;4.20;0.80;;;13.90;57.20;;;;;;5054306;28;20083;-78
2022/11/14 14:37:33;;;;;;;2.30;0.75;;;13.90;57.70;;;;;;5055754;28;20047;-77
2022/11/14 14:40:27;;;;;;;3.22;1.08;;;13.90;57.90;;;;;;5055988;28;20097;-78
2022/11/14 14:43:29;;;;;;;2.72;0.88;;;13.90;57.80;;;;;;5054928;28;20063;-79
2022/11/14 14:46:13;;;;;;;3.38;1.08;;;13.90;57.60;;;;;;5054555;28;20044;-79
2022/11/14 14:49:00;;;;;;;5.85;1.00;;;13.90;57.60;;;;;;5055716;28;20095;-79
2022/11/14 14:51:45;;;;;;;1.58;1.00;;;13.80;57.40;;;;;;5054982;28;20045;-79
2022/11/14 14:54:29;;;;;;;3.67;1.17;;;13.80;57.70;;;;;;5055569;28;20423;-78
2022/11/14 14:57:18;;;;;;;2.35;0.90;;;13.80;58.30;;;;;;5054044;28;20036;-79
2022/11/14 15:00:15;;;;;;;4.93;1.13;;;13.80;58.30;;;;;;5054684;28;20041;-79
2022/11/14 15:03:00;;;;;;;4.82;1.08;;;13.80;57.50;;;;;;5053581;28;20086;-79
2022/11/14 15:05:44;;;;;;;3.70;1.25;;;13.80;57.40;;;;;;5054962;28;20033;-79
2022/11/14 15:08:34;;;;;;;2.95;1.10;;;13.80;57.20;;;;;;5054836;28;20535;-79
2022/11/14 15:11:18;;;;;;;3.90;1.08;;;13.70;57.00;;;;;;5053875;28;20037;-79
2022/11/14 15:14:03;;;;;;;6.13;1.00;;;13.80;57.00;;;;;;5054828;28;20044;-79
2022/11/14 15:16:49;;;;;;;4.68;1.30;;;13.80;57.60;;;;;;5056131;28;20029;-78
2022/11/14 15:19:40;;;;;;;1.48;0.90;;;13.80;57.70;;;;;;5056365;28;20037;-76
2022/11/14 15:22:28;;;;;;;3.15;0.88;;;13.80;57.40;;;;;;5052799;28;20511;-79
2022/11/14 15:25:12;;;;;;;3.53;1.13;;;13.70;57.30;;;;;;5073430;28;20052;-77
2022/11/14 15:27:59;;;;;;;3.70;1.27;;;13.70;57.00;;;;;;5054796;28;20067;-79
2022/11/14 15:30:59;;;;;;;3.00;1.10;;;13.70;56.30;;;;;;5056225;28;20502;-77
2022/11/14 15:33:44;;;;;;;1.63;1.00;;;13.70;55.70;;;;;;5053298;28;20102;-78
2022/11/14 15:36:29;;;;;;;2.00;1.05;;;13.60;55.00;;;;;;5054232;28;20036;-77
2022/11/14 15:39:27;;;;;;;2.80;0.98;;;13.50;53.80;;;;;;5053939;28;20071;-77
2022/11/14 15:42:22;;;;;;;2.42;1.10;;;13.40;53.60;;;;;;5054346;28;20044;-77
2022/11/14 15:45:38;;;;;;;8.65;3.58;;;13.40;53.50;;;;;;5055180;28;20039;-77
2022/11/14 15:48:22;;;;;;;16.92;5.13;;;13.30;54.20;;;;;;5052143;28;20566;-77
2022/11/14 15:51:07;;;;;;;18.10;6.35;;;13.30;54.00;;;;;;5054153;28;20137;-77
2022/11/14 15:53:53;;;;;;;30.65;10.57;;;13.20;53.50;;;;;;5054050;28;20586;-77
2022/11/14 15:56:37;;;;;;;25.60;10.32;;;13.20;52.90;;;;;;5054327;28;20127;-77
2022/11/14 15:59:22;;;;;;;30.98;11.75;;;13.10;52.70;;;;;;5053882;28;20032;-78
2022/11/14 16:02:17;;;;;;;26.55;11.38;;;13.10;52.60;;;;;;5052767;28;20032;-77
2022/11/14 16:05:03;;;;;;;27.10;10.15;;;13.00;52.50;;;;;;5054812;28;20032;-78
2022/11/14 16:07:48;;;;;;;22.25;10.13;;;13.00;52.30;;;;;;5065726;28;20032;-77
2022/11/14 16:10:33;;;;;;;22.58;8.27;;;12.90;52.20;;;;;;5054350;28;20036;-80
2022/11/14 16:13:17;;;;;;;24.13;8.82;;;12.90;52.10;;;;;;5053308;28;20044;-79
2022/11/14 16:16:02;;;;;;;18.77;8.18;;;12.90;52.70;;;;;;5054851;28;20094;-78
2022/11/14 16:18:46;;;;;;;19.75;7.78;;;12.80;52.90;;;;;;5056035;28;20037;-78
2022/11/14 16:21:31;;;;;;;18.63;7.75;;;12.80;53.60;;;;;;5061667;28;20037;-77
2022/11/14 16:24:18;;;;;;;24.63;9.63;;;12.70;54.90;;;;;;5056245;28;20159;-77
2022/11/14 16:27:03;;;;;;;21.00;7.97;;;12.70;56.40;;;;;;5059591;28;20032;-77
2022/11/14 16:29:48;;;;;;;20.00;8.40;;;12.70;57.20;;;;;;5048540;28;20051;-77
2022/11/14 16:32:32;;;;;;;17.88;7.28;;;12.70;57.40;;;;;;5064092;28;20040;-77
2022/11/14 16:35:23;;;;;;;16.50;7.78;;;12.70;57.90;;;;;;5048770;28;20083;-77
2022/11/14 16:38:11;;;;;;;20.08;7.43;;;12.80;58.00;;;;;;5061921;28;20028;-78
2022/11/14 16:40:55;;;;;;;17.70;6.35;;;12.70;57.70;;;;;;5070133;28;20500;-78
2022/11/14 16:43:40;;;;;;;21.67;6.15;;;12.70;57.60;;;;;;5041251;28;20060;-79
2022/11/14 16:46:24;;;;;;;16.85;6.40;;;12.70;57.90;;;;;;5053331;28;20021;-79
2022/11/14 16:49:14;;;;;;;17.13;5.82;;;12.70;58.00;;;;;;5039213;28;20147;-79
2022/11/14 16:52:04;;;;;;;13.60;5.35;;;12.70;57.50;;;;;;5054374;28;20059;-78
2022/11/14 16:54:48;;;;;;;13.05;4.32;;;12.70;57.10;;;;;;5052788;28;20028;-77
2022/11/14 16:57:33;;;;;;;9.95;4.45;;;12.70;56.70;;;;;;5038755;28;20040;-77
2022/11/14 17:00:18;;;;;;;15.35;4.75;;;12.70;56.60;;;;;;5054313;28;20037;-77
2022/11/14 17:03:03;;;;;;;9.02;3.70;;;12.60;57.50;;;;;;5052939;28;20083;-78
2022/11/14 17:05:49;;;;;;;14.20;3.30;;;12.60;56.80;;;;;;5054058;28;20033;-77
2022/11/14 17:08:34;;;;;;;11.93;3.97;;;12.60;56.40;;;;;;5044585;28;20087;-80
2022/11/14 17:11:18;;;;;;;7.68;4.13;;;12.60;56.60;;;;;;5052230;28;20052;-75
2022/11/14 17:14:03;;;;;;;9.32;3.03;;;12.60;56.70;;;;;;5053273;28;20030;-75
2022/11/14 17:16:48;;;;;;;8.35;3.22;;;12.60;56.20;;;;;;5057310;28;20040;-78
2022/11/14 17:19:32;;;;;;;10.50;3.70;;;12.60;56.30;;;;;;5055206;28;20040;-78
2022/11/14 17:22:18;;;;;;;7.93;3.25;;;12.60;56.40;;;;;;5058278;28;20511;-78
2022/11/14 17:25:02;;;;;;;;;;;12.60;56.10;;;;;;5059628;28;20099;-78
2022/11/14 17:27:47;;;;;;;6.05;2.60;;;12.60;55.90;;;;;;5069892;28;19916;-81
2022/11/14 17:30:32;;;;;;;6.45;3.08;;;12.50;55.70;;;;;;5057771;28;20095;-81
2022/11/14 17:33:16;;;;;;;6.30;2.58;;;12.50;55.60;;;;;;5058071;28;20032;-78
2022/11/14 17:36:09;;;;;;;6.75;2.38;;;12.50;55.20;;;;;;5057143;28;20037;-78
2022/11/14 17:38:56;;;;;;;6.00;1.98;;;12.50;55.70;;;;;;5055535;28;20040;-81
2022/11/14 17:41:40;;;;;;;7.35;2.13;;;12.50;55.60;;;;;;5055303;28;20470;-83
2022/11/14 17:44:47;;;;;;;6.78;1.83;;;12.50;55.70;;;;;;5058706;28;20089;-82
2022/11/14 17:47:31;;;;;;;5.82;2.13;;;12.50;55.60;;;;;;5056333;28;20106;-79
2022/11/14 17:50:16;;;;;;;5.45;1.98;;;12.50;55.60;;;;;;5041697;28;20045;-78
2022/11/14 17:53:00;;;;;;;4.10;1.52;;;12.50;55.50;;;;;;5056612;28;20128;-80
2022/11/14 17:55:45;;;;;;;5.20;1.27;;;12.50;55.20;;;;;;5056921;28;20040;-81
2022/11/14 17:58:30;;;;;;;6.82;2.03;;;12.50;55.30;;;;;;5058114;28;20127;-82
2022/11/14 18:01:18;;;;;;;2.85;1.35;;;12.50;55.50;;;;;;5062043;28;20132;-81
2022/11/14 18:04:02;;;;;;;5.13;1.60;;;12.50;55.40;;;;;;5053256;28;20123;-82
2022/11/14 18:06:47;;;;;;;3.65;1.38;;;12.40;55.20;;;;;;5054010;28;20036;-87
2022/11/14 18:09:31;;;;;;;2.97;1.40;;;12.40;54.80;;;;;;5054982;28;20056;-81
2022/11/14 18:12:16;;;;;;;3.38;1.08;;;12.40;54.90;;;;;;5057107;28;20062;-81
2022/11/14 18:15:00;;;;;;;4.15;1.20;;;12.40;54.80;;;;;;5056834;28;20523;-80
2022/11/14 18:17:45;;;;;;;5.07;1.08;;;12.40;54.60;;;;;;5054444;28;20025;-80
2022/11/14 18:20:29;;;;;;;2.00;1.00;;;12.30;54.60;;;;;;5056022;28;20036;-82
2022/11/14 18:23:14;;;;;;;2.67;0.90;;;12.40;54.50;;;;;;5056788;28;20037;-81
2022/11/14 18:25:59;;;;;;;3.60;1.00;;;12.30;54.20;;;;;;5058436;28;20568;-84
2022/11/14 18:28:46;;;;;;;2.70;1.20;;;12.30;54.00;;;;;;5054224;28;20059;-90
2022/11/14 18:31:30;;;;;;;3.58;1.10;;;12.30;53.90;;;;;;5058526;28;20051;-83
2022/11/14 18:34:15;;;;;;;3.67;1.00;;;12.30;53.90;;;;;;5076709;28;20029;-81
2022/11/14 18:37:00;;;;;;;1.90;0.70;;;12.30;54.00;;;;;;5055855;28;20033;-86
2022/11/14 18:39:44;;;;;;;2.15;1.00;;;12.30;53.70;;;;;;5034694;28;20508;-84
2022/11/14 18:42:29;;;;;;;2.90;0.80;;;12.30;53.60;;;;;;5053538;28;20123;-87
2022/11/14 18:45:14;;;;;;;2.85;0.63;;;12.30;53.30;;;;;;5055327;28;20036;-91
2022/11/14 18:47:59;;;;;;;2.58;0.60;;;12.30;53.40;;;;;;5053221;28;20052;-81
2022/11/14 18:50:43;;;;;;;1.80;0.68;;;12.20;53.60;;;;;;5050440;28;20619;-81
2022/11/14 18:53:32;;;;;;;1.80;0.73;;;12.20;53.80;;;;;;5054527;28;20024;-78
2022/11/14 18:56:18;;;;;;;2.67;0.70;;;12.20;54.10;;;;;;5055443;28;20044;-80
2022/11/14 18:59:04;;;;;;;2.42;0.90;;;12.20;53.90;;;;;;5086534;28;20043;-78
2022/11/14 19:01:49;;;;;;;2.70;0.70;;;12.20;53.80;;;;;;5056728;28;20029;-78
2022/11/14 19:04:33;;;;;;;3.17;0.73;;;12.20;53.70;;;;;;5057193;28;20072;-80
2022/11/14 19:07:18;;;;;;;1.98;0.50;;;12.20;53.90;;;;;;5055886;28;20024;-82